Time;durP1;ratioP1;P1;durP2;ratioP2;P2;SDS_P1;SDS_P2;PMS_P1;PMS_P2;Temp;Humidity;BMP_temperature;BMP_pressure;BME280_temperature;BME280_humidity;BME280_pressure;Samples;Min_cycle;Max_cycle;Signal;HPM_P1;HPM_P2
2022/12/31 00:00:56;;;;;;;12.20;8.55;;;9.40;99.90;;;;;;5015366;28;20073;-56
2022/12/31 00:03:22;;;;;;;12.07;7.65;;;9.40;99.90;;;;;;5014065;28;20058;-57
2022/12/31 00:05:48;;;;;;;18.10;10.13;;;9.40;99.90;;;;;;5014329;28;20369;-56
2022/12/31 00:08:13;;;;;;;11.45;8.35;;;9.60;99.90;;;;;;5013854;28;20046;-54
2022/12/31 00:10:40;;;;;;;11.32;8.50;;;9.70;99.90;;;;;;5013938;28;20117;-56
2022/12/31 00:13:07;;;;;;;13.70;8.10;;;;;;;;;;5013836;28;20054;-57
2022/12/31 00:15:34;;;;;;;10.88;7.10;;;10.00;99.90;;;;;;5013757;28;20474;-55
2022/12/31 00:17:59;;;;;;;12.75;8.88;;;9.90;99.90;;;;;;5013683;28;20084;-56
2022/12/31 00:20:25;;;;;;;13.90;9.52;;;9.80;99.90;;;;;;5028324;28;20482;-55
2022/12/31 00:22:51;;;;;;;25.02;14.88;;;9.60;99.90;;;;;;5013820;28;20038;-55
2022/12/31 00:25:17;;;;;;;17.27;11.20;;;9.50;99.90;;;;;;5013724;28;20030;-54
2022/12/31 00:27:42;;;;;;;13.13;10.27;;;9.40;99.90;;;;;;5014016;28;20030;-53
2022/12/31 00:30:09;;;;;;;12.63;8.85;;;9.40;99.90;;;;;;5013104;28;20522;-57
2022/12/31 00:32:34;;;;;;;12.38;8.85;;;9.50;99.90;;;;;;5013516;28;20034;-55
2022/12/31 00:35:00;;;;;;;13.23;8.98;;;9.40;99.90;;;;;;5013561;28;20030;-57
2022/12/31 00:37:26;;;;;;;12.98;9.38;;;9.50;99.90;;;;;;5011272;28;20371;-55
2022/12/31 00:39:52;;;;;;;10.57;8.15;;;9.40;99.90;;;;;;5044771;28;20077;-54
2022/12/31 00:42:17;;;;;;;12.90;8.95;;;9.20;99.90;;;;;;5013148;28;20053;-53
2022/12/31 00:44:43;;;;;;;14.82;10.10;;;9.30;99.90;;;;;;5013608;28;20026;-56
2022/12/31 00:47:09;;;;;;;19.67;10.07;;;;;;;;;;5013483;28;20030;-53
2022/12/31 00:49:35;;;;;;;14.60;10.65;;;9.30;99.90;;;;;;5013332;28;20101;-54
2022/12/31 00:52:01;;;;;;;16.50;10.13;;;;;;;;;;5024135;28;20172;-55
2022/12/31 00:54:27;;;;;;;11.23;8.07;;;9.10;99.90;;;;;;5033254;28;20472;-53
2022/12/31 00:56:52;;;;;;;10.82;7.00;;;9.10;99.90;;;;;;5032784;28;20104;-56
2022/12/31 00:59:18;;;;;;;14.07;8.43;;;;;;;;;;5032883;28;20428;-54
2022/12/31 01:01:44;;;;;;;12.00;7.57;;;9.30;99.90;;;;;;5032757;28;20112;-56
2022/12/31 01:04:14;;;;;;;10.85;7.30;;;9.40;99.90;;;;;;5047591;28;20116;-54
2022/12/31 01:06:40;;;;;;;9.93;7.00;;;9.40;99.90;;;;;;5032657;28;20362;-54
2022/12/31 01:09:07;;;;;;;9.70;6.28;;;9.50;99.90;;;;;;5032880;28;20026;-53
2022/12/31 01:11:33;;;;;;;10.75;7.22;;;9.30;99.90;;;;;;5033066;28;20083;-53
2022/12/31 01:14:09;;;;;;;13.45;9.30;;;9.20;99.90;;;;;;5032688;28;20030;-55
2022/12/31 01:16:44;;;;;;;12.80;8.75;;;9.20;99.90;;;;;;5032807;28;20029;-54
2022/12/31 01:19:28;;;;;;;11.82;7.25;;;9.00;99.90;;;;;;5032850;28;20080;-57
2022/12/31 01:21:55;;;;;;;10.18;7.63;;;8.70;99.90;;;;;;5032487;28;20026;-57
2022/12/31 01:24:21;;;;;;;10.82;7.07;;;8.80;99.90;;;;;;5033053;28;20052;-54
2022/12/31 01:26:47;;;;;;;8.63;7.43;;;8.60;99.90;;;;;;5032590;28;20112;-54
2022/12/31 01:29:13;;;;;;;9.95;7.10;;;8.20;99.90;;;;;;5047315;28;20121;-55
2022/12/31 01:31:39;;;;;;;11.23;8.18;;;8.20;99.90;;;;;;5047349;28;20039;-54
2022/12/31 01:34:06;;;;;;;11.40;7.47;;;8.20;99.90;;;;;;5033059;28;20474;-55
2022/12/31 01:36:34;;;;;;;9.30;6.97;;;8.30;99.90;;;;;;5032918;28;20381;-55
2022/12/31 01:39:01;;;;;;;10.30;6.38;;;8.30;99.90;;;;;;5032786;28;20026;-53
2022/12/31 01:41:35;;;;;;;8.20;5.70;;;8.30;99.90;;;;;;5016201;28;20048;-53
2022/12/31 01:44:11;;;;;;;7.70;5.35;;;;;;;;;;5017737;28;20041;-56
2022/12/31 01:46:45;;;;;;;11.15;5.57;;;8.50;99.90;;;;;;5036260;28;20048;-53
2022/12/31 01:49:35;;;;;;;7.50;4.68;;;8.40;99.90;;;;;;5036258;28;20022;-57
2022/12/31 01:52:16;;;;;;;8.30;4.40;;;8.40;99.90;;;;;;5036142;28;20046;-54
2022/12/31 01:54:54;;;;;;;8.35;5.90;;;8.40;99.90;;;;;;5036621;28;20068;-53
2022/12/31 01:57:21;;;;;;;11.35;7.63;;;8.40;99.90;;;;;;5036156;28;20037;-54
2022/12/31 01:59:47;;;;;;;13.75;8.07;;;8.50;99.90;;;;;;5036084;28;20047;-57
2022/12/31 02:02:14;;;;;;;13.60;9.32;;;8.70;99.90;;;;;;5051400;28;20124;-55
2022/12/31 02:04:40;;;;;;;25.20;14.52;;;8.90;99.90;;;;;;5017673;28;20038;-54
2022/12/31 02:07:07;;;;;;;30.88;20.40;;;9.10;99.90;;;;;;5035730;28;20035;-54
2022/12/31 02:09:37;;;;;;;22.00;15.20;;;9.30;99.90;;;;;;5035993;28;20026;-53
2022/12/31 02:12:03;;;;;;;18.17;11.48;;;9.50;99.90;;;;;;5017311;28;20044;-53
2022/12/31 02:14:32;;;;;;;11.05;7.38;;;9.50;99.90;;;;;;5050644;28;20496;-55
2022/12/31 02:17:31;;;;;;;11.32;7.00;;;9.40;99.90;;;;;;5035785;28;20021;-56
2022/12/31 02:20:00;;;;;;;9.20;6.13;;;9.50;99.90;;;;;;5013652;28;20041;-54
2022/12/31 02:22:44;;;;;;;9.45;6.22;;;9.50;99.90;;;;;;5013740;28;20030;-53
2022/12/31 02:25:42;;;;;;;9.05;6.90;;;9.50;99.90;;;;;;5013488;28;20417;-57
2022/12/31 02:28:38;;;;;;;9.57;6.78;;;9.40;99.90;;;;;;5013504;28;20441;-52
2022/12/31 02:31:30;;;;;;;8.35;6.07;;;8.90;99.90;;;;;;5013494;28;20042;-55
2022/12/31 02:33:59;;;;;;;;;;;8.80;99.90;;;;;;5000034;28;20037;-54
2022/12/31 02:36:32;;;;;;;9.93;5.93;;;8.90;99.90;;;;;;5013387;28;20396;-56
2022/12/31 02:38:58;;;;;;;7.85;5.80;;;9.00;99.90;;;;;;5013209;28;20048;-55
2022/12/31 02:44:39;;;;;;;7.95;6.13;;;8.90;99.90;;;;;;5013235;28;20104;-55
2022/12/31 02:47:08;;;;;;;9.48;5.85;;;8.90;99.90;;;;;;4954857;29;20043;-56
2022/12/31 02:49:45;;;;;;;8.55;5.93;;;9.00;99.90;;;;;;4955022;29;20477;-56
2022/12/31 02:52:20;;;;;;;8.43;5.57;;;9.20;99.90;;;;;;4954124;28;20142;-55
2022/12/31 02:54:57;;;;;;;7.78;5.47;;;9.40;99.90;;;;;;4954950;29;20035;-55
2022/12/31 02:57:30;;;;;;;7.22;5.07;;;9.40;99.90;;;;;;4991509;28;20089;-54
2022/12/31 03:03:10;;;;;;;7.35;5.28;;;9.90;99.90;;;;;;4993098;28;20490;-53
2022/12/31 03:05:40;;;;;;;19.20;12.02;;;10.00;99.90;;;;;;4993431;28;20030;-56
2022/12/31 03:08:06;;;;;;;9.57;5.63;;;10.10;99.90;;;;;;4960587;28;20242;-54
2022/12/31 03:10:33;;;;;;;6.93;5.03;;;10.20;99.90;;;;;;4993282;28;20034;-54
2022/12/31 03:12:59;;;;;;;6.18;4.57;;;10.30;99.90;;;;;;4993071;28;20526;-54
2022/12/31 03:15:32;;;;;;;11.35;5.50;;;10.20;99.90;;;;;;4954340;29;20103;-57
2022/12/31 03:17:58;;;;;;;7.20;5.32;;;;;;;;;;4954181;29;20502;-55
2022/12/31 03:23:22;;;;;;;8.35;6.07;;;;;;;;;;4971471;28;20113;-54
2022/12/31 03:25:48;;;;;;;8.25;5.68;;;;;;;;;;4992961;28;20053;-54
2022/12/31 03:28:17;;;;;;;6.53;5.13;;;9.70;99.90;;;;;;4992810;28;20046;-56
2022/12/31 03:30:48;;;;;;;6.45;4.95;;;9.60;99.90;;;;;;4992754;28;20038;-52
2022/12/31 03:33:14;;;;;;;8.23;5.72;;;9.60;99.90;;;;;;4990879;28;20034;-56
2022/12/31 03:35:42;;;;;;;8.02;5.88;;;9.70;99.90;;;;;;4992836;28;20037;-55
2022/12/31 03:38:08;;;;;;;7.53;5.38;;;9.80;99.90;;;;;;4992678;28;20189;-57
2022/12/31 03:40:40;;;;;;;11.15;7.38;;;9.60;99.90;;;;;;4992787;28;20045;-57
2022/12/31 03:43:06;;;;;;;7.38;5.68;;;9.60;99.90;;;;;;4979295;28;20044;-56
2022/12/31 03:45:33;;;;;;;8.55;5.18;;;9.70;99.90;;;;;;5017835;28;20397;-54
2022/12/31 03:47:59;;;;;;;7.13;4.32;;;9.70;99.90;;;;;;5051964;28;20099;-54
2022/12/31 03:50:26;;;;;;;6.38;4.82;;;9.90;99.90;;;;;;5053893;28;20025;-57
2022/12/31 03:52:51;;;;;;;6.25;4.55;;;10.10;99.90;;;;;;5053727;28;20131;-53
2022/12/31 03:55:17;;;;;;;7.22;5.15;;;10.20;99.90;;;;;;5053718;28;20112;-57
2022/12/31 03:57:43;;;;;;;9.80;6.25;;;10.40;99.90;;;;;;5051903;28;20546;-54
2022/12/31 04:00:11;;;;;;;9.55;6.40;;;;;;;;;;5053963;28;20503;-56
2022/12/31 04:02:37;;;;;;;9.43;6.25;;;10.70;99.90;;;;;;5053211;28;20093;-57
2022/12/31 04:05:03;;;;;;;9.05;6.28;;;10.90;99.90;;;;;;5034583;28;20033;-53
2022/12/31 04:07:29;;;;;;;9.10;6.18;;;11.00;99.90;;;;;;5018546;28;20385;-58
2022/12/31 04:09:54;;;;;;;20.80;14.40;;;11.10;99.90;;;;;;5053592;28;20103;-56
2022/12/31 04:12:20;;;;;;;13.65;8.07;;;11.10;99.90;;;;;;5053495;28;20029;-57
2022/12/31 04:14:46;;;;;;;9.30;6.82;;;11.20;99.90;;;;;;5053966;28;20112;-54
2022/12/31 04:17:12;;;;;;;9.68;7.45;;;11.30;99.90;;;;;;5053488;28;20541;-54
2022/12/31 04:19:37;;;;;;;10.13;8.10;;;11.20;99.90;;;;;;5053324;28;20033;-55
2022/12/31 04:22:04;;;;;;;9.75;7.22;;;11.10;99.90;;;;;;5053601;28;20025;-53
2022/12/31 04:24:30;;;;;;;9.57;7.15;;;11.10;99.90;;;;;;5053851;28;20059;-55
2022/12/31 04:26:56;;;;;;;32.10;16.25;;;10.90;99.90;;;;;;5053110;28;20053;-55
2022/12/31 04:29:22;;;;;;;39.88;22.60;;;11.10;99.90;;;;;;5051293;28;20049;-53
2022/12/31 04:31:48;;;;;;;41.95;26.60;;;11.00;99.90;;;;;;5051341;28;20158;-54
2022/12/31 04:34:13;;;;;;;53.58;31.75;;;10.90;99.90;;;;;;5053259;28;20025;-55
2022/12/31 04:36:39;;;;;;;44.05;32.17;;;10.80;99.90;;;;;;5034481;28;20066;-54
2022/12/31 04:39:05;;;;;;;49.35;31.75;;;10.80;99.90;;;;;;5053067;28;20469;-55
2022/12/31 04:41:30;;;;;;;42.53;28.58;;;10.80;99.90;;;;;;5053215;28;20036;-53
2022/12/31 04:43:58;;;;;;;50.20;30.13;;;10.70;99.90;;;;;;5051072;28;20131;-55
2022/12/31 04:46:27;;;;;;;44.15;28.88;;;10.70;99.90;;;;;;5051109;28;20102;-55
2022/12/31 04:48:53;;;;;;;52.85;30.17;;;10.70;99.90;;;;;;5011173;28;20045;-56
2022/12/31 04:51:19;;;;;;;44.47;27.42;;;10.60;99.90;;;;;;5011004;28;20568;-54
2022/12/31 04:53:45;;;;;;;42.67;28.63;;;10.20;99.90;;;;;;5010998;28;20398;-55
2022/12/31 04:56:12;;;;;;;49.78;30.02;;;10.20;99.90;;;;;;5010946;28;20089;-55
2022/12/31 04:58:38;;;;;;;39.25;24.23;;;10.10;99.90;;;;;;5011119;28;20033;-54
2022/12/31 05:01:04;;;;;;;50.60;31.23;;;10.20;99.90;;;;;;5011071;28;20030;-58
2022/12/31 05:03:31;;;;;;;48.33;30.70;;;10.20;99.90;;;;;;5011022;28;20517;-56
2022/12/31 05:06:01;;;;;;;27.45;18.95;;;9.80;99.90;;;;;;5011071;28;20036;-55
2022/12/31 05:08:27;;;;;;;26.77;18.02;;;9.60;99.90;;;;;;5011077;28;20550;-56
2022/12/31 05:10:53;;;;;;;25.13;15.95;;;9.60;99.90;;;;;;5011061;28;20606;-53
2022/12/31 05:13:18;;;;;;;16.80;12.38;;;9.60;99.90;;;;;;5011008;28;20054;-55
2022/12/31 05:15:45;;;;;;;17.73;10.38;;;9.60;99.90;;;;;;5013464;28;20525;-56
2022/12/31 05:18:11;;;;;;;12.23;8.63;;;9.70;99.90;;;;;;5014859;28;20125;-53
2022/12/31 05:20:36;;;;;;;20.63;12.32;;;9.80;99.90;;;;;;5030716;28;20120;-54
2022/12/31 05:23:02;;;;;;;22.00;15.18;;;10.00;99.90;;;;;;5038143;28;20045;-53
2022/12/31 05:25:28;;;;;;;25.08;15.23;;;10.10;99.90;;;;;;5056945;28;20082;-57
2022/12/31 05:27:54;;;;;;;41.72;25.88;;;10.30;99.90;;;;;;5055175;28;20045;-54
2022/12/31 05:30:23;;;;;;;43.55;29.38;;;10.20;99.90;;;;;;5056494;28;20108;-56
2022/12/31 05:32:48;;;;;;;49.33;33.95;;;10.30;99.90;;;;;;5054714;28;20065;-54
2022/12/31 05:35:14;;;;;;;51.58;35.05;;;10.20;99.90;;;;;;5056465;28;20511;-57
2022/12/31 05:37:40;;;;;;;69.65;39.40;;;10.30;99.90;;;;;;5056457;28;20039;-57
2022/12/31 05:40:07;;;;;;;60.60;38.15;;;10.40;99.90;;;;;;5056321;28;20361;-53
2022/12/31 05:42:33;;;;;;;61.05;38.33;;;10.40;99.90;;;;;;5021293;28;20048;-57
2022/12/31 05:44:59;;;;;;;61.42;38.97;;;10.40;99.90;;;;;;5056086;28;20029;-53
2022/12/31 05:47:25;;;;;;;81.00;48.50;;;10.30;99.90;;;;;;5055620;28;20422;-56
2022/12/31 05:49:50;;;;;;;67.30;44.50;;;10.20;99.90;;;;;;5056289;28;20021;-58
2022/12/31 05:52:16;;;;;;;53.45;36.28;;;9.90;99.90;;;;;;5055998;28;20052;-55
2022/12/31 05:54:42;;;;;;;42.65;29.88;;;9.80;99.90;;;;;;5055334;28;20029;-57
2022/12/31 05:57:08;;;;;;;47.20;31.75;;;9.80;99.90;;;;;;5055976;28;20043;-55
2022/12/31 05:59:33;;;;;;;42.17;28.33;;;9.50;99.90;;;;;;5056036;28;20190;-55
2022/12/31 06:01:59;;;;;;;44.40;29.60;;;9.20;99.90;;;;;;5052891;28;20594;-55
2022/12/31 06:04:25;;;;;;;36.60;24.80;;;9.30;99.90;;;;;;5056098;28;20029;-56
2022/12/31 06:06:51;;;;;;;36.45;22.17;;;9.30;99.90;;;;;;5054574;28;20134;-56
2022/12/31 06:09:18;;;;;;;28.30;21.40;;;9.30;99.90;;;;;;5055722;28;20052;-56
2022/12/31 06:11:44;;;;;;;27.17;19.38;;;9.20;99.90;;;;;;5055762;28;20029;-56
2022/12/31 06:14:11;;;;;;;29.75;20.50;;;9.20;99.90;;;;;;5033542;28;20037;-55
2022/12/31 06:16:37;;;;;;;31.80;20.00;;;9.70;99.90;;;;;;5033836;28;20104;-58
2022/12/31 06:19:03;;;;;;;31.98;18.90;;;9.80;99.90;;;;;;5033593;28;20483;-53
2022/12/31 06:21:29;;;;;;;21.83;15.90;;;9.90;99.90;;;;;;5031711;28;20045;-54
2022/12/31 06:23:55;;;;;;;20.95;13.98;;;9.70;99.90;;;;;;5032212;28;20501;-54
2022/12/31 06:26:21;;;;;;;16.00;10.77;;;9.70;99.90;;;;;;5032014;28;20025;-57
2022/12/31 06:28:47;;;;;;;16.92;10.43;;;9.70;99.90;;;;;;5033112;28;20029;-53
2022/12/31 06:31:14;;;;;;;12.35;9.63;;;9.80;99.90;;;;;;5032911;28;20032;-53
2022/12/31 06:33:40;;;;;;;11.93;9.85;;;9.80;99.90;;;;;;5030158;28;20133;-54
2022/12/31 06:36:10;;;;;;;13.70;10.75;;;9.80;99.90;;;;;;5032740;28;20026;-53
2022/12/31 06:38:39;;;;;;;13.45;11.13;;;9.90;99.90;;;;;;5032570;28;20493;-56
2022/12/31 06:41:11;;;;;;;17.02;10.80;;;10.10;99.90;;;;;;5000015;28;20037;-56
2022/12/31 06:43:37;;;;;;;18.52;11.52;;;10.40;99.90;;;;;;5033221;28;20485;-58
2022/12/31 06:46:04;;;;;;;23.58;17.02;;;10.60;99.90;;;;;;5052268;28;20086;-54
2022/12/31 06:48:30;;;;;;;78.32;43.40;;;10.90;99.90;;;;;;5054081;28;20033;-54
2022/12/31 06:50:56;;;;;;;71.95;42.15;;;11.10;99.90;;;;;;5053427;28;20040;-56
2022/12/31 06:53:22;;;;;;;84.38;46.95;;;;;;;;;;5054918;28;20021;-57
2022/12/31 06:55:49;;;;;;;74.85;47.88;;;;;;;;;;5052695;28;20088;-55
2022/12/31 06:58:15;;;;;;;50.92;34.95;;;;;;;;;;5054165;28;20029;-55
2022/12/31 07:00:57;;;;;;;35.50;25.88;;;;;;;;;;5054400;28;20037;-57
2022/12/31 07:03:39;;;;;;;36.47;27.75;;;;;;;;;;5052996;28;20389;-61
2022/12/31 07:06:19;;;;;;;23.60;18.75;;;15.00;99.90;;;;;;5047827;28;20116;-55
2022/12/31 07:08:50;;;;;;;33.42;24.75;;;;;;;;;;5041575;28;20033;-56
2022/12/31 07:11:22;;;;;;;33.92;23.00;;;;;;;;;;5055010;28;20025;-57
2022/12/31 07:13:48;;;;;;;;;;;;;;;;;;5055310;28;20087;-53
2022/12/31 07:16:17;;;;;;;23.23;18.63;;;;;;;;;;5053757;28;19909;-55
2022/12/31 07:18:50;;;;;;;23.30;14.45;;;;;;;;;;5054633;28;20040;-55
2022/12/31 07:21:25;;;;;;;26.05;17.98;;;15.80;99.90;;;;;;5054473;28;20033;-52
2022/12/31 07:23:51;;;;;;;30.10;20.50;;;16.00;99.90;;;;;;5054437;28;20098;-54
2022/12/31 07:26:43;;;;;;;23.60;17.67;;;15.90;99.90;;;;;;5054351;28;20199;-52
2022/12/31 07:29:15;;;;;;;25.45;17.15;;;16.80;99.90;;;;;;5054655;28;20025;-54
2022/12/31 07:31:47;;;;;;;44.72;21.88;;;;;;;;;;5054503;28;20025;-55
2022/12/31 07:34:19;;;;;;;30.00;16.92;;;;;;;;;;5054131;28;20033;-53
2022/12/31 07:36:53;;;;;;;62.42;31.00;;;;;;;;;;5054456;28;20080;-54
2022/12/31 07:39:46;;;;;;;109.70;55.15;;;14.30;99.90;;;;;;5054282;28;20029;-54
2022/12/31 07:42:15;;;;;;;83.55;47.95;;;14.00;99.90;;;;;;5053844;28;20099;-56
2022/12/31 07:44:47;;;;;;;91.88;54.10;;;;;;;;;;5054085;28;20029;-52
2022/12/31 07:47:27;;;;;;;187.05;84.15;;;;;;;;;;5054516;28;20017;-55
2022/12/31 07:49:53;;;;;;;133.85;66.32;;;13.70;99.90;;;;;;5036022;28;20122;-55
2022/12/31 07:52:20;;;;;;;164.43;75.20;;;13.60;99.90;;;;;;5053753;28;20079;-54
2022/12/31 07:54:46;;;;;;;108.38;59.25;;;13.60;99.90;;;;;;5053920;28;20051;-54
2022/12/31 07:57:14;;;;;;;98.72;62.33;;;13.60;99.90;;;;;;5054131;28;20058;-55
2022/12/31 07:59:55;;;;;;;102.75;62.47;;;13.70;99.90;;;;;;5054177;28;20052;-52
2022/12/31 08:02:45;;;;;;;123.15;76.10;;;13.60;99.90;;;;;;5053744;28;20064;-51
2022/12/31 08:05:11;;;;;;;107.15;69.03;;;;;;;;;;5053663;28;20108;-53
2022/12/31 08:08:08;;;;;;;102.38;69.15;;;13.00;99.90;;;;;;5054006;28;20395;-53
2022/12/31 08:10:58;;;;;;;114.93;77.18;;;12.70;99.90;;;;;;5053880;28;20098;-56
2022/12/31 08:13:24;;;;;;;124.90;85.47;;;12.50;99.90;;;;;;5053712;28;20025;-51
2022/12/31 08:15:50;;;;;;;130.18;85.88;;;12.50;99.90;;;;;;5035144;28;20504;-54
2022/12/31 08:18:16;;;;;;;142.00;89.03;;;12.30;99.90;;;;;;5034905;28;20194;-56
2022/12/31 08:21:08;;;;;;;134.40;91.20;;;12.60;99.90;;;;;;5035086;28;20488;-54
2022/12/31 08:23:52;;;;;;;144.48;88.63;;;12.70;99.90;;;;;;4992015;28;20148;-52
2022/12/31 08:26:28;;;;;;;140.60;93.07;;;12.80;99.90;;;;;;4991790;28;20046;-53
2022/12/31 08:29:05;;;;;;;130.07;85.70;;;12.90;99.90;;;;;;4992077;28;20049;-54
2022/12/31 08:31:53;;;;;;;137.07;85.90;;;13.20;99.90;;;;;;4991933;28;20053;-55
2022/12/31 08:34:34;;;;;;;90.35;60.13;;;13.20;99.90;;;;;;4934064;29;20523;-53
2022/12/31 08:37:28;;;;;;;86.93;59.17;;;13.50;99.90;;;;;;4934154;29;20040;-55
2022/12/31 08:40:12;;;;;;;89.40;59.33;;;13.50;99.90;;;;;;4932766;29;20118;-54
2022/12/31 08:43:18;;;;;;;89.10;60.85;;;13.60;99.90;;;;;;4919573;29;20146;-51
2022/12/31 08:45:48;;;;;;;108.82;67.75;;;13.50;99.90;;;;;;4934059;29;20515;-54
2022/12/31 08:48:25;;;;;;;252.85;169.77;;;13.60;99.90;;;;;;4933950;29;20870;-52
2022/12/31 08:50:52;;;;;;;173.50;111.18;;;13.60;99.90;;;;;;4933510;29;20035;-51
2022/12/31 08:53:18;;;;;;;108.88;76.57;;;13.70;99.90;;;;;;4917666;29;20040;-51
2022/12/31 08:55:45;;;;;;;108.82;73.43;;;13.80;99.90;;;;;;4918036;29;20043;-51
2022/12/31 08:58:28;;;;;;;112.28;78.65;;;13.80;99.90;;;;;;4933974;29;20436;-53
2022/12/31 09:00:57;;;;;;;121.53;87.05;;;13.90;99.90;;;;;;4959146;28;20035;-53
2022/12/31 09:03:38;;;;;;;81.60;58.72;;;14.10;99.90;;;;;;4956042;28;20042;-53
2022/12/31 09:06:44;;;;;;;89.35;60.53;;;14.30;99.90;;;;;;4972206;28;20070;-56
2022/12/31 09:09:31;;;;;;;111.15;73.82;;;14.20;99.90;;;;;;4970204;28;20039;-54
2022/12/31 09:12:08;;;;;;;110.45;77.60;;;14.30;99.90;;;;;;5043395;28;20078;-52
2022/12/31 09:14:45;;;;;;;167.27;109.03;;;14.30;99.90;;;;;;5053060;28;20082;-54
2022/12/31 09:17:20;;;;;;;162.80;110.50;;;14.60;99.90;;;;;;5052700;28;20032;-53
2022/12/31 09:19:46;;;;;;;153.30;108.22;;;14.60;99.90;;;;;;5051325;28;20029;-52
2022/12/31 09:22:12;;;;;;;130.15;94.93;;;15.00;99.90;;;;;;5034120;28;20381;-53
2022/12/31 09:24:38;;;;;;;124.75;91.18;;;15.20;99.90;;;;;;5034329;28;20128;-54
2022/12/31 09:27:12;;;;;;;128.07;94.80;;;15.50;99.90;;;;;;5034316;28;20037;-52
2022/12/31 09:29:47;;;;;;;103.38;77.60;;;;;;;;;;5052526;28;20028;-51
2022/12/31 09:32:22;;;;;;;102.03;78.43;;;;;;;;;;5052795;28;20060;-52
2022/12/31 09:35:39;;;;;;;105.85;79.32;;;17.10;99.90;;;;;;5052770;28;20029;-52
2022/12/31 09:38:26;;;;;;;120.13;90.03;;;16.60;99.90;;;;;;4991245;28;20085;-52
2022/12/31 09:40:58;;;;;;;134.75;106.30;;;16.60;99.90;;;;;;4991534;28;20068;-50
2022/12/31 09:43:26;;;;;;;140.70;104.43;;;16.50;99.90;;;;;;4991214;28;20078;-51
2022/12/31 09:46:33;;;;;;;145.73;103.72;;;16.30;99.90;;;;;;4991396;28;20038;-50
2022/12/31 09:49:05;;;;;;;142.48;101.60;;;;;;;;;;4956787;28;20486;-51
2022/12/31 09:51:34;;;;;;;130.38;93.18;;;16.40;99.90;;;;;;4989668;28;20137;-50
2022/12/31 09:54:19;;;;;;;133.93;94.38;;;16.60;99.90;;;;;;4989912;28;20428;-51
2022/12/31 09:57:11;;;;;;;146.65;100.78;;;16.50;99.90;;;;;;4989754;28;20510;-50
2022/12/31 09:59:50;;;;;;;145.90;99.07;;;16.90;99.90;;;;;;4989918;28;20130;-50
2022/12/31 10:02:52;;;;;;;133.15;96.13;;;17.30;99.90;;;;;;4991063;28;20268;-50
2022/12/31 10:05:18;;;;;;;;;;;;;;;;;;4993839;28;20318;-51
2022/12/31 10:07:44;;;;;;;116.28;87.85;;;;;;;;;;4976809;28;20432;-51
2022/12/31 10:10:19;;;;;;;104.13;76.70;;;;;;;;;;4993160;28;20385;-50
2022/12/31 10:13:07;;;;;;;100.93;74.55;;;;;;;;;;4993187;28;20042;-51
2022/12/31 10:15:33;;;;;;;91.82;70.90;;;23.30;99.90;;;;;;5054569;28;20028;-49
2022/12/31 10:18:11;;;;;;;76.95;62.05;;;;;;;;;;5054669;28;20113;-49
2022/12/31 10:20:59;;;;;;;79.63;63.65;;;24.70;98.80;;;;;;5054614;28;20055;-49
2022/12/31 10:23:26;;;;;;;85.13;72.03;;;;;;;;;;5054622;28;20124;-51
2022/12/31 10:26:29;;;;;;;78.03;61.05;;;25.90;96.20;;;;;;5053995;28;20464;-52
2022/12/31 10:29:19;;;;;;;87.88;70.40;;;26.60;94.10;;;;;;5053008;28;20043;-50
2022/12/31 10:32:14;;;;;;;78.47;63.00;;;26.60;93.90;;;;;;4992493;28;20057;-50
2022/12/31 10:34:52;;;;;;;65.07;53.65;;;26.90;92.90;;;;;;4992800;28;20062;-51
2022/12/31 10:37:19;;;;;;;61.95;52.00;;;;;;;;;;4992430;28;20609;-53
2022/12/31 10:39:58;;;;;;;72.72;57.08;;;;;;;;;;4992373;28;20117;-58
2022/12/31 10:43:08;;;;;;;80.28;62.70;;;27.90;91.60;;;;;;4992231;28;20479;-53
2022/12/31 10:46:03;;;;;;;67.85;52.03;;;27.70;90.90;;;;;;4953568;29;20050;-55
2022/12/31 10:48:37;;;;;;;61.35;50.60;;;;;;;;;;4952998;28;20118;-53
2022/12/31 10:51:40;;;;;;;70.88;60.15;;;27.90;90.80;;;;;;4952501;29;20522;-50
2022/12/31 10:54:39;;;;;;;67.05;57.65;;;28.10;90.60;;;;;;4934124;29;20042;-50
2022/12/31 10:57:11;;;;;;;46.03;40.22;;;;;;;;;;4953006;29;20066;-50
2022/12/31 11:00:00;;;;;;;54.00;46.50;;;27.80;86.10;;;;;;4953504;28;20027;-51
2022/12/31 11:03:13;;;;;;;49.30;43.10;;;27.20;88.10;;;;;;4957113;28;20047;-51
2022/12/31 11:06:00;;;;;;;52.92;45.20;;;27.80;89.00;;;;;;4952107;29;20047;-50
2022/12/31 11:08:26;;;;;;;48.85;43.10;;;27.50;89.40;;;;;;4947156;29;20036;-50
2022/12/31 11:11:30;;;;;;;49.95;42.35;;;27.10;90.00;;;;;;4934136;29;20032;-50
2022/12/31 11:14:32;;;;;;;46.67;41.60;;;27.20;90.10;;;;;;4933635;28;20036;-51
2022/12/31 11:16:58;;;;;;;45.83;40.97;;;;;;;;;;4933942;29;20180;-50
2022/12/31 11:19:59;;;;;;;51.45;42.50;;;27.70;89.60;;;;;;4934006;29;20031;-50
2022/12/31 11:22:33;;;;;;;60.13;44.42;;;27.60;88.60;;;;;;4977844;28;20034;-50
2022/12/31 11:25:29;;;;;;;39.88;32.90;;;27.60;86.30;;;;;;4990540;28;20089;-50
2022/12/31 11:28:19;;;;;;;27.40;23.80;;;27.70;84.70;;;;;;4964122;28;20050;-52
2022/12/31 11:31:09;;;;;;;27.60;22.65;;;27.80;83.70;;;;;;4989745;28;20222;-50
2022/12/31 11:33:38;;;;;;;30.80;25.27;;;28.00;82.90;;;;;;4990344;28;20034;-50
2022/12/31 11:36:27;;;;;;;30.95;24.77;;;27.90;82.80;;;;;;4991169;28;20039;-51
2022/12/31 11:39:29;;;;;;;32.20;27.58;;;27.80;82.80;;;;;;4986704;28;20615;-50
2022/12/31 11:42:19;;;;;;;34.78;26.52;;;27.60;82.80;;;;;;4999764;28;20112;-50
2022/12/31 11:45:30;;;;;;;35.33;26.52;;;27.60;83.50;;;;;;4978238;28;20042;-50
2022/12/31 11:48:11;;;;;;;30.67;26.35;;;27.50;84.10;;;;;;5010541;28;20604;-50
2022/12/31 11:51:31;;;;;;;33.15;27.55;;;27.60;83.50;;;;;;5011068;28;20034;-50
2022/12/31 11:54:32;;;;;;;24.20;18.88;;;27.60;84.10;;;;;;4971624;28;20063;-50
2022/12/31 11:57:16;;;;;;;20.77;17.05;;;27.80;82.80;;;;;;4974643;28;20153;-50
2022/12/31 11:59:42;;;;;;;21.13;17.67;;;28.00;82.70;;;;;;5010331;28;20034;-50
2022/12/31 12:02:26;;;;;;;28.25;19.45;;;27.70;82.50;;;;;;5010507;28;20025;-50
2022/12/31 12:04:53;;;;;;;28.98;18.02;;;27.80;83.00;;;;;;5010582;28;20080;-50
2022/12/31 12:07:20;;;;;;;14.82;9.93;;;27.80;82.30;;;;;;5010683;28;20026;-50
2022/12/31 12:09:46;;;;;;;16.92;10.98;;;27.60;81.00;;;;;;5009814;28;20042;-50
2022/12/31 12:12:14;;;;;;;17.02;11.00;;;27.60;81.80;;;;;;5010407;28;20045;-50
2022/12/31 12:14:43;;;;;;;13.73;11.13;;;27.50;81.10;;;;;;5009815;28;20470;-50
2022/12/31 12:17:15;;;;;;;26.48;16.67;;;27.20;81.40;;;;;;5008928;28;20040;-50
2022/12/31 12:19:44;;;;;;;16.35;12.77;;;27.20;82.10;;;;;;4994098;28;20072;-51
2022/12/31 12:22:23;;;;;;;17.23;11.20;;;26.10;82.20;;;;;;5007952;28;20025;-50
2022/12/31 12:25:07;;;;;;;14.75;9.75;;;26.00;83.30;;;;;;5030526;28;20064;-51
2022/12/31 12:27:34;;;;;;;13.60;10.02;;;26.00;82.40;;;;;;5010258;28;20026;-50
2022/12/31 12:30:18;;;;;;;18.15;11.32;;;25.50;83.00;;;;;;5010197;28;20088;-50
2022/12/31 12:32:58;;;;;;;13.45;8.65;;;25.50;83.60;;;;;;5010329;28;20556;-50
2022/12/31 12:35:30;;;;;;;11.75;8.45;;;25.90;83.20;;;;;;4977620;28;20033;-50
2022/12/31 12:38:05;;;;;;;16.13;11.98;;;25.60;82.60;;;;;;5009989;28;20042;-50
2022/12/31 12:40:33;;;;;;;8.30;5.70;;;25.50;83.00;;;;;;5010111;28;20441;-50
2022/12/31 12:42:59;;;;;;;10.30;6.78;;;25.40;82.20;;;;;;5009275;28;20460;-50
2022/12/31 12:45:35;;;;;;;8.45;5.97;;;25.50;83.30;;;;;;5010156;28;20045;-50
2022/12/31 12:48:11;;;;;;;12.75;7.60;;;25.00;81.80;;;;;;5009806;28;20547;-50
2022/12/31 12:50:46;;;;;;;9.40;5.00;;;25.10;83.50;;;;;;5009892;28;20049;-49
2022/12/31 12:53:46;;;;;;;25.25;20.73;;;25.00;81.40;;;;;;5008809;28;20165;-50
2022/12/31 12:56:29;;;;;;;31.95;25.40;;;24.40;82.60;;;;;;4973813;28;20050;-50
2022/12/31 12:59:16;;;;;;;20.85;15.13;;;23.90;85.00;;;;;;5016944;28;20037;-50
2022/12/31 13:02:05;;;;;;;20.20;12.95;;;23.70;94.00;;;;;;5030356;28;20042;-50
2022/12/31 13:04:54;;;;;;;20.73;13.15;;;23.30;86.30;;;;;;5032426;28;20052;-50
2022/12/31 13:07:31;;;;;;;23.55;13.73;;;23.00;87.10;;;;;;5032868;28;20033;-50
2022/12/31 13:09:57;;;;;;;20.40;13.38;;;22.70;87.00;;;;;;5033047;28;20119;-50
2022/12/31 13:12:46;;;;;;;13.93;8.85;;;22.50;87.70;;;;;;5033581;28;20069;-50
2022/12/31 13:15:19;;;;;;;13.73;8.75;;;22.20;87.60;;;;;;5030837;28;20037;-50
2022/12/31 13:17:54;;;;;;;14.40;8.40;;;;;;;;;;5033246;28;20029;-50
2022/12/31 13:20:37;;;;;;;10.23;7.13;;;21.90;87.70;;;;;;5033466;28;20362;-50
2022/12/31 13:23:25;;;;;;;7.40;6.35;;;21.80;88.60;;;;;;5033139;28;20037;-50
2022/12/31 13:26:13;;;;;;;10.95;6.68;;;21.70;88.20;;;;;;5033091;28;20053;-50
2022/12/31 13:28:41;;;;;;;14.05;8.02;;;21.60;88.30;;;;;;5033378;28;20545;-50
2022/12/31 13:31:15;;;;;;;31.20;21.38;;;21.40;89.20;;;;;;5033156;28;20112;-51